| time (UTC) | temp C | wind direction | speed KPH | gust KPH | rain 1hr cm | rain 24hr cm | rain mn cm | humidity % | barometer mb |
| 20260507130518 | 10 | 293 | 1.6 | 8.0 | 0.00 | 0.36 | 0.23 | 81 | 1008.7 |
| 20260507125518 | 10 | 315 | 6.4 | 14.5 | 0.00 | 0.36 | 0.23 | 82 | 1008.9 |
| 20260507124540 | 9 | 315 | 1.6 | 8.0 | 0.00 | 0.36 | 0.23 | 84 | 1008.6 |
| 20260507123518 | 9 | 315 | 3.2 | 14.5 | 0.00 | 0.36 | 0.23 | 84 | 1008.6 |
| 20260507122518 | 9 | 315 | 6.4 | 17.7 | 0.00 | 0.36 | 0.23 | 84 | 1008.5 |
| 20260507121601 | 8 | 315 | 4.8 | 14.5 | 0.00 | 0.36 | 0.23 | 85 | 1008.5 |
| 20260507120518 | 8 | 315 | 1.6 | 8.0 | 0.00 | 0.36 | 0.23 | 86 | 1008.5 |
| 20260507115518 | 8 | 315 | 4.8 | 14.5 | 0.00 | 0.36 | 0.23 | 87 | 1008.4 |
| 20260507114538 | 8 | 315 | 4.8 | 16.1 | 0.03 | 0.36 | 0.23 | 87 | 1008.4 |
| 20260507113518 | 8 | 315 | 4.8 | 12.9 | 0.03 | 0.36 | 0.23 | 87 | 1008.3 |
| 20260507112518 | 8 | 315 | 1.6 | 8.0 | 0.03 | 0.36 | 0.23 | 87 | 1007.9 |
| 20260507111518 | 8 | 315 | 3.2 | 8.0 | 0.03 | 0.36 | 0.23 | 88 | 1008.2 |
| 20260507110520 | 8 | 315 | 1.6 | 6.4 | 0.05 | 0.36 | 0.23 | 88 | 1008.2 |
| 20260507105518 | 8 | 0.0 | 3.2 | 0.08 | 0.36 | 0.23 | 87 | 1008.5 | |
| 20260507104542 | 8 | 0.0 | 6.4 | 0.05 | 0.33 | 0.20 | 87 | 1008.0 | |
| 20260507103522 | 8 | 315 | 1.6 | 11.3 | 0.10 | 0.33 | 0.20 | 87 | 1008.1 |
| 20260507102557 | 8 | 315 | 3.2 | 14.5 | 0.13 | 0.33 | 0.20 | 87 | 1008.2 |
| 20260507102020 | 8 | 315 | 1.6 | 9.7 | 0.15 | 0.33 | 0.20 | 87 | 1008.0 |
| 20260507101018 | 8 | 315 | 3.2 | 11.3 | 0.13 | 0.30 | 0.18 | 87 | 1008.0 |
| 20260507100018 | 8 | 315 | 4.8 | 14.5 | 0.10 | 0.28 | 0.15 | 86 | 1007.8 |
| 20260507095018 | 8 | 315 | 4.8 | 12.9 | 0.10 | 0.28 | 0.15 | 86 | 1007.8 |
| 20260507094018 | 8 | 315 | 4.8 | 14.5 | 0.10 | 0.25 | 0.13 | 85 | 1007.7 |
| 20260507093018 | 8 | 315 | 8.0 | 20.9 | 0.05 | 0.20 | 0.08 | 85 | 1007.6 |
| 20260507092018 | 9 | 315 | 11.3 | 19.3 | 0.03 | 0.18 | 0.05 | 85 | 1007.9 |
| 20260507091040 | 9 | 315 | 8.0 | 19.3 | 0.03 | 0.18 | 0.05 | 85 | 1007.5 |
| 20260507090018 | 9 | 293 | 6.4 | 16.1 | 0.05 | 0.18 | 0.05 | 86 | 1007.5 |
| 20260507085040 | 10 | 315 | 4.8 | 20.9 | 0.05 | 0.18 | 0.05 | 86 | 1007.1 |
| 20260507084018 | 10 | 315 | 6.4 | 22.5 | 0.03 | 0.15 | 0.03 | 85 | 1007.0 |
| 20260507083018 | 10 | 315 | 11.3 | 24.1 | 0.03 | 0.15 | 0.03 | 84 | 1007.0 |
| 20260507082116 | 10 | 315 | 12.9 | 29.0 | 0.03 | 0.15 | 0.03 | 84 | 1007.1 |
| 20260507081020 | 10 | 315 | 11.3 | 24.1 | 0.03 | 0.15 | 0.03 | 84 | 1007.0 |
| 20260507080030 | 10 | 315 | 14.5 | 30.6 | 0.00 | 0.13 | 0.00 | 83 | 1006.8 |
| 20260507075020 | 11 | 315 | 9.7 | 22.5 | 0.00 | 0.13 | 0.00 | 84 | 1006.9 |
| 20260507074020 | 11 | 315 | 8.0 | 22.5 | 0.00 | 0.13 | 0.00 | 84 | 1006.7 |
| 20260507073040 | 11 | 293 | 8.0 | 20.9 | 0.00 | 0.13 | 0.00 | 85 | 1006.4 |
| 20260507072018 | 11 | 293 | 4.8 | 17.7 | 0.00 | 0.13 | 0.00 | 86 | 1006.6 |
| 20260507071019 | 11 | 293 | 4.8 | 14.5 | 0.00 | 0.13 | 0.00 | 87 | 1006.6 |
| 20260507070021 | 11 | 293 | 6.4 | 16.1 | 0.00 | 0.13 | 0.00 | 88 | 1006.6 |
| 20260507065108 | 11 | 293 | 3.2 | 12.9 | 0.00 | 0.13 | 0.00 | 88 | 1006.6 |
| 20260507064018 | 11 | 315 | 4.8 | 14.5 | 0.00 | 0.13 | 0.00 | 88 | 1006.4 |
| 20260507063040 | 11 | 315 | 4.8 | 16.1 | 0.00 | 0.13 | 0.00 | 89 | 1006.4 |
| 20260507062042 | 11 | 315 | 4.8 | 16.1 | 0.00 | 0.13 | 0.00 | 89 | 1006.7 |
| 20260507061020 | 11 | 293 | 1.6 | 8.0 | 0.00 | 0.13 | 0.00 | 89 | 1006.6 |
| 20260507060022 | 11 | 315 | 6.4 | 14.5 | 0.00 | 0.13 | 0.00 | 90 | 1006.9 |
| 20260507055547 | 11 | 315 | 6.4 | 16.1 | 0.00 | 0.13 | 0.00 | 90 | 1007.0 |
| 20260507054521 | 11 | 315 | 6.4 | 20.9 | 0.00 | 0.13 | 0.00 | 91 | 1006.8 |
| 20260507053520 | 11 | 315 | 9.7 | 20.9 | 0.00 | 0.13 | 0.00 | 92 | 1006.5 |
| 20260507052519 | 11 | 315 | 8.0 | 22.5 | 0.00 | 0.13 | 0.00 | 92 | 1006.7 |
| 20260507051521 | 12 | 315 | 9.7 | 25.7 | 0.00 | 0.13 | 0.00 | 92 | 1006.6 |
| 20260507050521 | 14 | 293 | 1.6 | 11.3 | 0.00 | 0.13 | 0.00 | 93 | 1006.6 |
| 20260507045521 | 13 | 293 | 1.6 | 12.9 | 0.00 | 0.13 | 0.00 | 93 | 1006.3 |
| 20260507044543 | 13 | 270 | 1.6 | 4.8 | 0.00 | 0.13 | 0.00 | 93 | 1006.5 |
| 20260507043519 | 13 | 270 | 1.6 | 6.4 | 0.00 | 0.13 | 0.00 | 93 | 1006.5 |
| 20260507042519 | 13 | 270 | 3.2 | 12.9 | 0.00 | 0.13 | 0.00 | 93 | 1006.4 |
| 20260507041519 | 13 | 270 | 1.6 | 11.3 | 0.00 | 0.13 | 0.00 | 93 | 1006.7 |
| 20260507040519 | 12 | 270 | 3.2 | 11.3 | 0.00 | 0.13 | 0.00 | 93 | 1006.6 |
| 20260507040021 | 12 | 270 | 1.6 | 9.7 | 0.00 | 0.13 | 0.13 | 93 | 1006.6 |
| 20260507035020 | 12 | 270 | 6.4 | 17.7 | 0.00 | 0.13 | 0.13 | 92 | 1006.8 |
| 20260507034018 | 12 | 270 | 4.8 | 17.7 | 0.00 | 0.13 | 0.13 | 92 | 1006.6 |
| 20260507033018 | 12 | 248 | 4.8 | 16.1 | 0.00 | 0.13 | 0.13 | 92 | 1006.3 |
| 20260507032017 | 12 | 270 | 4.8 | 17.7 | 0.00 | 0.13 | 0.13 | 92 | 1006.0 |
| 20260507031018 | 12 | 270 | 4.8 | 16.1 | 0.00 | 0.13 | 0.13 | 92 | 1006.0 |
| 20260507030018 | 12 | 270 | 9.7 | 22.5 | 0.00 | 0.13 | 0.13 | 92 | 1005.9 |
| 20260507025059 | 12 | 270 | 8.0 | 24.1 | 0.00 | 0.13 | 0.13 | 92 | 1006.1 |
| 20260507024018 | 13 | 270 | 4.8 | 20.9 | 0.00 | 0.13 | 0.13 | 92 | 1006.1 |
| 20260507023020 | 13 | 248 | 3.2 | 12.9 | 0.00 | 0.13 | 0.13 | 92 | 1006.1 |
| 20260507022019 | 12 | 270 | 4.8 | 19.3 | 0.00 | 0.13 | 0.13 | 92 | 1006.3 |
| 20260507021331 | 12 | 225 | 4.8 | 17.7 | 0.00 | 0.13 | 0.13 | 92 | 1006.1 |
| 20260507020517 | 12 | 248 | 4.8 | 19.3 | 0.00 | 0.13 | 0.13 | 92 | 1006.4 |
| 20260507020008 | 12 | 248 | 4.8 | 22.5 | 0.00 | 0.13 | 0.13 | 92 | 1006.3 |
| 20260507015020 | 12 | 225 | 8.0 | 24.1 | 0.00 | 0.13 | 0.13 | 92 | 1006.5 |
| 20260507014019 | 12 | 248 | 6.4 | 19.3 | 0.00 | 0.13 | 0.13 | 92 | 1006.4 |
| 20260507013040 | 12 | 248 | 8.0 | 29.0 | 0.00 | 0.13 | 0.13 | 92 | 1006.6 |
| 20260507012019 | 12 | 248 | 6.4 | 20.9 | 0.00 | 0.13 | 0.13 | 92 | 1006.5 |
| 20260507011019 | 12 | 248 | 9.7 | 29.0 | 0.03 | 0.13 | 0.13 | 92 | 1006.7 |
| 20260507010021 | 12 | 248 | 8.0 | 22.5 | 0.03 | 0.13 | 0.13 | 92 | 1006.6 |
| 20260507005019 | 12 | 248 | 9.7 | 25.7 | 0.03 | 0.13 | 0.13 | 92 | 1006.7 |
| 20260507004026 | 12 | 248 | 8.0 | 25.7 | 0.05 | 0.13 | 0.13 | 92 | 1006.6 |
| 20260507003101 | 11 | 225 | 8.0 | 32.2 | 0.05 | 0.13 | 0.13 | 91 | 1006.6 |
| 20260507002019 | 11 | 225 | 4.8 | 19.3 | 0.05 | 0.13 | 0.13 | 91 | 1006.8 |
| 20260507001019 | 11 | 225 | 8.0 | 22.5 | 0.03 | 0.10 | 0.10 | 92 | 1006.8 |
| 20260507000019 | 11 | 248 | 8.0 | 22.5 | 0.03 | 0.10 | 0.10 | 91 | 1006.8 |
| 20260506235023 | 11 | 225 | 6.4 | 20.9 | 0.03 | 0.10 | 0.10 | 91 | 1006.7 |
| 20260506234019 | 12 | 225 | 6.4 | 25.7 | 0.00 | 0.08 | 0.08 | 91 | 1006.8 |
| 20260506233019 | 11 | 225 | 6.4 | 16.1 | 0.00 | 0.08 | 0.08 | 91 | 1006.9 |
| 20260506232021 | 11 | 225 | 6.4 | 24.1 | 0.00 | 0.08 | 0.08 | 91 | 1006.8 |
| 20260506231021 | 12 | 225 | 6.4 | 20.9 | 0.03 | 0.08 | 0.08 | 90 | 1007.0 |
| 20260506230041 | 12 | 225 | 4.8 | 19.3 | 0.03 | 0.08 | 0.08 | 91 | 1006.9 |
| 20260506225010 | 12 | 225 | 8.0 | 16.1 | 0.03 | 0.08 | 0.08 | 91 | 1007.0 |
| 20260506224603 | 12 | 225 | 6.4 | 19.3 | 0.03 | 0.08 | 0.08 | 90 | 1007.1 |
| 20260506223541 | 12 | 225 | 6.4 | 19.3 | 0.03 | 0.08 | 0.08 | 90 | 1007.3 |
| 20260506222519 | 12 | 225 | 6.4 | 14.5 | 0.03 | 0.08 | 0.08 | 90 | 1007.3 |
| 20260506221541 | 12 | 225 | 6.4 | 19.3 | 0.03 | 0.05 | 0.05 | 90 | 1007.4 |
| 20260506220524 | 12 | 248 | 8.0 | 20.9 | 0.05 | 0.05 | 0.05 | 89 | 1007.5 |
| 20260506215519 | 12 | 225 | 8.0 | 27.4 | 0.05 | 0.05 | 0.05 | 89 | 1007.5 |
| 20260506214524 | 12 | 225 | 8.0 | 20.9 | 0.05 | 0.05 | 0.05 | 89 | 1007.6 |
| 20260506213521 | 12 | 225 | 6.4 | 19.3 | 0.05 | 0.05 | 0.05 | 89 | 1007.7 |
| 20260506212521 | 12 | 225 | 6.4 | 25.7 | 0.05 | 0.05 | 0.05 | 88 | 1007.8 |
| 20260506211526 | 12 | 248 | 11.3 | 27.4 | 0.03 | 0.03 | 0.03 | 87 | 1007.9 |
| 20260506210525 | 13 | 225 | 4.8 | 16.1 | 0.00 | 0.00 | 0.00 | 86 | 1008.0 |
| 20260506205519 | 13 | 225 | 6.4 | 22.5 | 0.00 | 0.00 | 0.00 | 86 | 1008.0 |
| 20260506204521 | 13 | 270 | 4.8 | 17.7 | 0.00 | 0.00 | 0.00 | 86 | 1008.0 |
| 20260506203521 | 13 | 225 | 4.8 | 16.1 | 0.00 | 0.00 | 0.00 | 86 | 1007.9 |
| 20260506202521 | 12 | 248 | 4.8 | 17.7 | 0.00 | 0.00 | 0.00 | 86 | 1007.7 |
| 20260506201550 | 13 | 225 | 6.4 | 24.1 | 0.00 | 0.00 | 0.00 | 85 | 1007.9 |
| 20260506200539 | 13 | 248 | 8.0 | 24.1 | 0.00 | 0.00 | 0.00 | 85 | 1008.1 |
| 20260506195524 | 13 | 248 | 9.7 | 24.1 | 0.00 | 0.00 | 0.00 | 84 | 1008.2 |
| 20260506194521 | 13 | 248 | 6.4 | 19.3 | 0.00 | 0.00 | 0.00 | 82 | 1008.3 |
| 20260506193519 | 13 | 225 | 8.0 | 22.5 | 0.00 | 0.00 | 0.00 | 82 | 1008.4 |
| 20260506192521 | 13 | 248 | 9.7 | 25.7 | 0.00 | 0.00 | 0.00 | 81 | 1008.2 |
| 20260506191521 | 14 | 225 | 9.7 | 24.1 | 0.00 | 0.00 | 0.00 | 81 | 1008.2 |
| 20260506190519 | 14 | 225 | 8.0 | 22.5 | 0.00 | 0.00 | 0.00 | 81 | 1008.3 |
| 20260506190019 | 14 | 248 | 8.0 | 27.4 | 0.00 | 0.00 | 0.00 | 81 | 1008.2 |
| 20260506185019 | 14 | 248 | 9.7 | 30.6 | 0.00 | 0.00 | 0.00 | 81 | 1008.2 |
| 20260506184021 | 14 | 248 | 6.4 | 25.7 | 0.00 | 0.00 | 0.00 | 81 | 1008.2 |
| 20260506183022 | 14 | 225 | 6.4 | 20.9 | 0.00 | 0.00 | 0.00 | 81 | 1008.3 |
| 20260506182019 | 14 | 225 | 8.0 | 20.9 | 0.00 | 0.00 | 0.00 | 80 | 1008.6 |
| 20260506181019 | 14 | 248 | 6.4 | 37.0 | 0.00 | 0.00 | 0.00 | 80 | 1008.7 |
| 20260506180021 | 14 | 225 | 6.4 | 16.1 | 0.00 | 0.00 | 0.00 | 80 | 1008.8 |
| 20260506175019 | 15 | 248 | 4.8 | 22.5 | 0.00 | 0.00 | 0.00 | 79 | 1008.8 |
| 20260506174019 | 15 | 248 | 8.0 | 24.1 | 0.00 | 0.00 | 0.00 | 80 | 1008.9 |
| 20260506173019 | 14 | 248 | 8.0 | 22.5 | 0.00 | 0.00 | 0.00 | 80 | 1008.9 |
| 20260506172021 | 14 | 248 | 4.8 | 19.3 | 0.00 | 0.00 | 0.00 | 80 | 1008.9 |
| 20260506171020 | 14 | 248 | 4.8 | 17.7 | 0.00 | 0.00 | 0.00 | 80 | 1009.2 |
| 20260506170019 | 15 | 248 | 9.7 | 27.4 | 0.00 | 0.00 | 0.00 | 79 | 1009.2 |
| 20260506165019 | 15 | 225 | 6.4 | 22.5 | 0.00 | 0.00 | 0.00 | 79 | 1009.4 |
| 20260506164101 | 15 | 248 | 8.0 | 24.1 | 0.00 | 0.00 | 0.00 | 79 | 1009.6 |
| 20260506163023 | 15 | 225 | 8.0 | 24.1 | 0.00 | 0.00 | 0.00 | 79 | 1009.8 |
| 20260506162041 | 15 | 225 | 8.0 | 20.9 | 0.00 | 0.00 | 0.00 | 78 | 1009.9 |
| 20260506161020 | 15 | 225 | 9.7 | 19.3 | 0.00 | 0.00 | 0.00 | 78 | 1010.0 |
| 20260506160018 | 15 | 225 | 6.4 | 20.9 | 0.00 | 0.00 | 0.00 | 77 | 1010.2 |
| 20260506155018 | 15 | 248 | 8.0 | 22.5 | 0.00 | 0.00 | 0.00 | 77 | 1010.4 |
| 20260506154028 | 16 | 225 | 8.0 | 22.5 | 0.00 | 0.00 | 0.00 | 78 | 1010.5 |
| 20260506153542 | 15 | 225 | 8.0 | 19.3 | 0.00 | 0.00 | 0.00 | 78 | 1010.6 |
| 20260506152525 | 15 | 203 | 8.0 | 19.3 | 0.00 | 0.00 | 0.00 | 79 | 1010.6 |
| 20260506152019 | 15 | 203 | 8.0 | 17.7 | 0.00 | 0.00 | 0.00 | 79 | 1010.8 |
| 20260506151018 | 15 | 225 | 9.7 | 22.5 | 0.00 | 0.00 | 0.00 | 79 | 1010.6 |
| 20260506150108 | 15 | 270 | 4.8 | 17.7 | 0.00 | 0.00 | 0.00 | 80 | 1010.6 |
| 20260506145743 | 15 | 203 | 3.2 | 12.9 | 0.00 | 0.00 | 0.00 | 80 | 1010.5 |
| 20260506145022 | 15 | 225 | 3.2 | 14.5 | 0.00 | 0.00 | 0.00 | 80 | 1010.5 |
| 20260506144523 | 15 | 225 | 6.4 | 17.7 | 0.00 | 0.00 | 0.00 | 81 | 1010.5 |
| 20260506144038 | 15 | 225 | 9.7 | 27.4 | 0.00 | 0.00 | 0.00 | 80 | 1010.5 |
| 20260506143020 | 15 | 203 | 8.0 | 22.5 | 0.00 | 0.00 | 0.00 | 81 | 1010.4 |
| 20260506142020 | 14 | 225 | 6.4 | 20.9 | 0.00 | 0.00 | 0.00 | 81 | 1010.5 |
| 20260506141018 | 15 | 225 | 6.4 | 19.3 | 0.00 | 0.00 | 0.00 | 81 | 1010.5 |
| 20260506140042 | 15 | 225 | 11.3 | 22.5 | 0.00 | 0.00 | 0.00 | 80 | 1010.7 |
| 20260506135020 | 15 | 225 | 9.7 | 20.9 | 0.00 | 0.00 | 0.00 | 81 | 1010.9 |
| 20260506134020 | 15 | 203 | 11.3 | 24.1 | 0.00 | 0.00 | 0.00 | 82 | 1010.9 |
| 20260506133022 | 15 | 225 | 11.3 | 32.2 | 0.00 | 0.00 | 0.00 | 82 | 1010.7 |
| 20260506132107 | 15 | 225 | 9.7 | 29.0 | 0.00 | 0.00 | 0.00 | 83 | 1010.7 |
| 20260506131558 | 15 | 225 | 9.7 | 22.5 | 0.00 | 0.00 | 0.00 | 84 | 1010.9 |
| 20260506131020 | 14 | 225 | 11.3 | 24.1 | 0.00 | 0.00 | 0.00 | 84 | 1010.9 |